Time;durP1;ratioP1;P1;durP2;ratioP2;P2;SDS_P1;SDS_P2;PMS_P1;PMS_P2;Temp;Humidity;BMP_temperature;BMP_pressure;BME280_temperature;BME280_humidity;BME280_pressure;Samples;Min_cycle;Max_cycle;Signal;HPM_P1;HPM_P2
2021/06/04 00:01:51;;;;;;;21.52;16.65;;;18.40;99.90;;;;;;4986476;28;20027;-80
2021/06/04 00:04:18;;;;;;;21.30;17.23;;;18.40;99.90;;;;;;5001363;28;20039;-82
2021/06/04 00:06:44;;;;;;;20.95;17.05;;;18.40;99.90;;;;;;4985096;28;20035;-80
2021/06/04 00:09:12;;;;;;;19.10;15.45;;;18.40;99.90;;;;;;4986530;28;20046;-81
2021/06/04 00:11:47;;;;;;;21.13;15.77;;;18.40;99.90;;;;;;4986507;28;20037;-80
2021/06/04 00:14:17;;;;;;;20.77;17.30;;;18.40;99.90;;;;;;4986283;28;20070;-81
2021/06/04 00:17:05;;;;;;;21.20;16.95;;;18.30;99.90;;;;;;4986343;28;20487;-81
2021/06/04 00:19:32;;;;;;;22.10;17.63;;;18.30;99.90;;;;;;4986185;28;20049;-80
2021/06/04 00:22:22;;;;;;;20.40;16.92;;;18.30;99.90;;;;;;4986544;28;20026;-80
2021/06/04 00:24:50;;;;;;;21.75;16.55;;;18.20;99.90;;;;;;4984226;28;20031;-81
2021/06/04 00:27:17;;;;;;;19.13;15.90;;;18.20;99.90;;;;;;4967171;28;20499;-81
2021/06/04 00:29:43;;;;;;;20.13;15.88;;;18.20;99.90;;;;;;4967137;28;20035;-81
2021/06/04 00:32:11;;;;;;;21.02;17.02;;;18.20;99.90;;;;;;4966942;28;20110;-81
2021/06/04 00:34:38;;;;;;;18.77;16.13;;;18.30;99.90;;;;;;4966847;28;20106;-82
2021/06/04 00:37:04;;;;;;;20.30;16.40;;;18.20;99.90;;;;;;4965578;28;20039;-82
2021/06/04 00:39:33;;;;;;;19.23;16.30;;;18.20;99.90;;;;;;4966078;29;20099;-81
2021/06/04 00:42:13;;;;;;;19.42;16.67;;;18.20;99.90;;;;;;4965872;28;20030;-82
2021/06/04 00:44:39;;;;;;;;;;;18.20;99.90;;;;;;4982043;28;20502;-82
2021/06/04 00:47:06;;;;;;;18.45;15.07;;;18.20;99.90;;;;;;4986161;28;19910;-81
2021/06/04 00:49:33;;;;;;;19.48;16.80;;;18.10;99.90;;;;;;4986198;28;20091;-82
2021/06/04 00:52:09;;;;;;;20.20;16.70;;;18.10;99.90;;;;;;4986251;28;20101;-82
2021/06/04 00:54:37;;;;;;;19.38;16.30;;;18.10;99.90;;;;;;4986215;28;20066;-82
2021/06/04 00:57:04;;;;;;;21.67;17.38;;;18.20;99.90;;;;;;5001496;28;20026;-81
2021/06/04 00:59:37;;;;;;;22.50;19.10;;;18.20;99.90;;;;;;4988477;28;20035;-82
2021/06/04 01:02:11;;;;;;;22.55;17.85;;;18.10;99.90;;;;;;5005574;28;20031;-82
2021/06/04 01:04:38;;;;;;;23.50;17.70;;;18.10;99.90;;;;;;4989687;28;20114;-82
2021/06/04 01:07:09;;;;;;;23.27;17.75;;;18.10;99.90;;;;;;4987922;28;20038;-82
2021/06/04 01:10:05;;;;;;;20.20;15.63;;;18.10;99.90;;;;;;5004351;28;20069;-82
2021/06/04 01:12:52;;;;;;;19.52;16.20;;;18.00;99.90;;;;;;4972487;28;20031;-82
2021/06/04 01:15:38;;;;;;;20.17;16.30;;;18.00;99.90;;;;;;4988192;28;20035;-82
2021/06/04 01:18:36;;;;;;;21.50;17.50;;;18.10;99.90;;;;;;4987994;28;20027;-83
2021/06/04 01:21:14;;;;;;;22.92;18.02;;;18.10;99.90;;;;;;4964456;28;20443;-81
2021/06/04 01:23:50;;;;;;;23.50;18.20;;;18.20;99.90;;;;;;4987788;28;20034;-82
2021/06/04 01:26:26;;;;;;;21.85;18.17;;;18.10;99.90;;;;;;4973992;28;20027;-82
2021/06/04 01:28:58;;;;;;;23.45;18.10;;;18.10;99.90;;;;;;4968427;28;20039;-81
2021/06/04 01:31:41;;;;;;;20.63;17.27;;;18.10;99.90;;;;;;4968466;29;20440;-81
2021/06/04 01:34:15;;;;;;;23.50;18.65;;;18.10;99.90;;;;;;4967995;28;20075;-82
2021/06/04 01:37:10;;;;;;;26.88;21.77;;;18.00;99.90;;;;;;4969402;28;20023;-82
2021/06/04 01:39:56;;;;;;;24.30;19.58;;;18.00;99.90;;;;;;4968230;29;20032;-82
2021/06/04 01:42:28;;;;;;;24.20;20.05;;;18.00;99.90;;;;;;4968254;28;20108;-81
2021/06/04 01:44:59;;;;;;;23.45;18.77;;;18.00;99.90;;;;;;4985035;28;20026;-81
2021/06/04 01:47:37;;;;;;;18.98;16.83;;;18.00;99.90;;;;;;5003714;28;20030;-82
2021/06/04 01:50:18;;;;;;;20.90;17.88;;;17.90;99.90;;;;;;4971283;28;20041;-82
2021/06/04 01:52:45;;;;;;;21.70;18.58;;;18.00;99.90;;;;;;5003620;28;20062;-82
2021/06/04 01:55:16;;;;;;;19.98;17.33;;;18.00;99.90;;;;;;4987174;28;20066;-82
2021/06/04 01:57:57;;;;;;;21.15;18.30;;;18.00;99.90;;;;;;4988490;28;20030;-81
2021/06/04 02:00:42;;;;;;;20.58;17.88;;;18.00;99.90;;;;;;4988406;28;20029;-82
2021/06/04 02:03:14;;;;;;;23.05;17.83;;;17.90;99.90;;;;;;4987431;28;20038;-81
2021/06/04 02:05:53;;;;;;;18.08;16.15;;;17.90;99.90;;;;;;5002921;28;20030;-81
2021/06/04 02:08:35;;;;;;;19.83;17.25;;;17.80;99.90;;;;;;4987877;28;20432;-81
2021/06/04 02:11:05;;;;;;;20.65;16.58;;;17.80;99.90;;;;;;4988206;28;20054;-81
2021/06/04 02:13:32;;;;;;;20.05;15.98;;;17.70;99.90;;;;;;4988220;28;20062;-81
2021/06/04 02:16:18;;;;;;;19.40;17.25;;;17.70;99.90;;;;;;4987554;28;20029;-81
2021/06/04 02:19:05;;;;;;;19.48;17.35;;;17.70;99.90;;;;;;4986825;28;20026;-82
2021/06/04 02:21:52;;;;;;;18.02;16.13;;;17.70;99.90;;;;;;5003012;28;20027;-81
2021/06/04 02:24:29;;;;;;;18.83;16.83;;;17.50;99.90;;;;;;4986663;28;20038;-81
2021/06/04 02:27:09;;;;;;;21.00;17.23;;;17.50;99.90;;;;;;4951851;29;20448;-80
2021/06/04 02:29:48;;;;;;;18.02;16.02;;;17.50;99.90;;;;;;4967388;28;20027;-81
2021/06/04 02:32:18;;;;;;;18.40;15.98;;;17.40;99.90;;;;;;4967352;29;20057;-80
2021/06/04 02:34:52;;;;;;;17.83;14.95;;;17.30;99.90;;;;;;4950981;29;20399;-81
2021/06/04 02:37:27;;;;;;;17.10;14.65;;;17.20;99.90;;;;;;4967245;28;20027;-81
2021/06/04 02:40:02;;;;;;;17.63;15.75;;;17.10;99.90;;;;;;4967046;29;20035;-80
2021/06/04 02:42:35;;;;;;;18.27;16.23;;;17.10;99.90;;;;;;4967080;28;20031;-81
2021/06/04 02:45:12;;;;;;;19.25;16.00;;;17.00;99.90;;;;;;4985859;28;20057;-81
2021/06/04 02:47:47;;;;;;;17.08;15.02;;;17.00;99.90;;;;;;5002740;28;20031;-81
2021/06/04 02:50:33;;;;;;;19.92;16.23;;;17.00;99.90;;;;;;4986102;28;20031;-82
2021/06/04 02:53:18;;;;;;;16.58;14.80;;;17.00;99.90;;;;;;5002380;28;20038;-81
2021/06/04 02:56:01;;;;;;;16.08;14.15;;;17.00;99.90;;;;;;4969923;28;20022;-80
2021/06/04 02:58:27;;;;;;;16.15;14.13;;;16.90;99.90;;;;;;5002534;28;20031;-81
2021/06/04 03:00:53;;;;;;;16.50;14.05;;;16.80;99.90;;;;;;4987399;28;20134;-81
2021/06/04 03:03:20;;;;;;;18.63;15.50;;;16.70;99.90;;;;;;4986497;28;20023;-80
2021/06/04 03:05:46;;;;;;;16.63;14.43;;;16.60;99.90;;;;;;5001830;28;20061;-81
2021/06/04 03:08:14;;;;;;;16.85;14.30;;;16.60;99.90;;;;;;5001943;28;20051;-81
2021/06/04 03:10:44;;;;;;;19.33;15.38;;;16.70;99.90;;;;;;4969737;28;20030;-81
2021/06/04 03:13:21;;;;;;;18.80;15.82;;;16.70;99.90;;;;;;4969875;28;20471;-80
2021/06/04 03:15:52;;;;;;;16.70;14.77;;;16.70;99.90;;;;;;4986991;28;20102;-81
2021/06/04 03:18:28;;;;;;;17.35;14.65;;;16.80;99.90;;;;;;4987122;28;20031;-82
2021/06/04 03:20:54;;;;;;;19.45;17.33;;;16.80;99.90;;;;;;4984943;28;20027;-82
2021/06/04 03:23:25;;;;;;;20.90;16.83;;;17.00;99.90;;;;;;4969828;28;20034;-81
2021/06/04 03:25:55;;;;;;;20.47;17.17;;;17.00;99.90;;;;;;4975254;28;20024;-83
2021/06/04 03:28:24;;;;;;;23.42;18.77;;;16.90;99.90;;;;;;4966373;28;20542;-82
2021/06/04 03:30:51;;;;;;;19.42;17.23;;;17.00;99.90;;;;;;4966454;28;20400;-81
2021/06/04 03:33:23;;;;;;;19.10;16.65;;;17.00;99.90;;;;;;4967483;28;20103;-81
2021/06/04 03:35:53;;;;;;;22.35;17.20;;;16.90;99.90;;;;;;4967242;28;20023;-81
2021/06/04 03:38:20;;;;;;;17.75;15.73;;;17.00;99.90;;;;;;4967997;28;20037;-81
2021/06/04 03:40:49;;;;;;;19.92;17.08;;;17.00;99.90;;;;;;4967440;28;20019;-81
2021/06/04 03:43:19;;;;;;;21.17;18.05;;;17.00;99.90;;;;;;4969735;28;20037;-81
2021/06/04 03:45:47;;;;;;;20.05;16.85;;;16.90;99.90;;;;;;5001058;28;20179;-80
2021/06/04 03:48:19;;;;;;;22.05;18.20;;;16.90;99.90;;;;;;4968842;28;20034;-80
2021/06/04 03:50:48;;;;;;;22.95;18.67;;;16.80;99.90;;;;;;4986719;28;20195;-80
2021/06/04 03:53:15;;;;;;;24.92;19.45;;;16.80;99.90;;;;;;4970807;28;20050;-80
2021/06/04 03:55:42;;;;;;;24.40;18.92;;;16.90;99.90;;;;;;4985119;28;20058;-81
2021/06/04 03:58:12;;;;;;;22.83;18.15;;;17.00;99.90;;;;;;5001351;28;20033;-80
2021/06/04 04:00:53;;;;;;;22.77;20.08;;;17.00;99.90;;;;;;4985828;28;20023;-79
2021/06/04 04:03:21;;;;;;;23.13;17.27;;;16.90;99.90;;;;;;4967379;28;20042;-80
2021/06/04 04:05:48;;;;;;;21.63;18.08;;;16.90;99.90;;;;;;4966376;28;20043;-81
2021/06/04 04:08:16;;;;;;;24.35;18.90;;;17.00;99.90;;;;;;4973601;23;20055;-81
2021/06/04 04:10:42;;;;;;;24.58;19.50;;;17.00;99.90;;;;;;4965742;29;20125;-81
2021/06/04 04:13:09;;;;;;;23.58;19.67;;;17.00;99.90;;;;;;4949753;29;20107;-80
2021/06/04 04:15:36;;;;;;;27.35;21.40;;;17.10;99.90;;;;;;4983947;28;20525;-81
2021/06/04 04:18:03;;;;;;;28.67;21.85;;;17.10;99.90;;;;;;4986798;28;20072;-81
2021/06/04 04:20:35;;;;;;;31.13;23.83;;;17.10;99.90;;;;;;4974901;28;20050;-81
2021/06/04 04:23:02;;;;;;;31.83;24.40;;;17.20;99.90;;;;;;4966952;28;20042;-81
2021/06/04 04:25:30;;;;;;;29.73;24.40;;;17.20;99.90;;;;;;4966692;28;20035;-80
2021/06/04 04:27:57;;;;;;;32.42;24.60;;;17.20;99.90;;;;;;4970306;28;20058;-81
2021/06/04 04:30:22;;;;;;;31.17;24.48;;;17.10;99.90;;;;;;4965930;28;20087;-80
2021/06/04 04:32:49;;;;;;;28.60;23.27;;;17.10;99.90;;;;;;4967965;28;20051;-80
2021/06/04 04:35:22;;;;;;;29.23;22.50;;;17.10;99.90;;;;;;4970476;28;20031;-80
2021/06/04 04:37:47;;;;;;;31.30;23.27;;;17.10;99.90;;;;;;4984786;28;20032;-82
2021/06/04 04:40:15;;;;;;;29.55;23.38;;;17.10;99.90;;;;;;4981857;28;20061;-80
2021/06/04 04:42:41;;;;;;;28.08;22.65;;;17.10;99.90;;;;;;4988172;28;20023;-80
2021/06/04 04:45:10;;;;;;;34.05;23.50;;;17.10;99.90;;;;;;4967555;28;20034;-80
2021/06/04 04:47:36;;;;;;;26.52;22.33;;;17.10;99.90;;;;;;4969712;28;20087;-80
2021/06/04 04:50:03;;;;;;;29.65;21.98;;;17.10;99.90;;;;;;4968354;29;20058;-81
2021/06/04 04:52:29;;;;;;;28.30;22.15;;;17.10;99.90;;;;;;4969644;28;20035;-79
2021/06/04 04:54:56;;;;;;;26.13;21.83;;;17.10;99.90;;;;;;4968425;29;20480;-79
2021/06/04 04:57:24;;;;;;;29.80;21.88;;;17.00;99.90;;;;;;4969565;28;20091;-81
2021/06/04 04:59:52;;;;;;;30.23;23.15;;;17.10;99.90;;;;;;4968010;29;20494;-79
2021/06/04 05:02:18;;;;;;;31.90;22.73;;;17.10;99.90;;;;;;4969615;28;20028;-80
2021/06/04 05:04:44;;;;;;;30.15;23.48;;;17.10;99.90;;;;;;4969726;28;20045;-80
2021/06/04 05:07:10;;;;;;;29.67;23.02;;;17.10;99.90;;;;;;4967817;29;20596;-80
2021/06/04 05:09:36;;;;;;;26.92;22.15;;;17.10;99.90;;;;;;4968050;29;20494;-80
2021/06/04 05:12:02;;;;;;;30.83;23.35;;;17.20;99.90;;;;;;4969211;29;20035;-80
2021/06/04 05:14:28;;;;;;;30.67;24.08;;;17.20;99.90;;;;;;4969448;29;20058;-80
2021/06/04 05:16:54;;;;;;;30.92;23.98;;;17.30;99.90;;;;;;4967869;29;20061;-80
2021/06/04 05:19:20;;;;;;;32.75;23.58;;;17.40;99.90;;;;;;4967865;29;20039;-80
2021/06/04 05:21:46;;;;;;;31.05;23.63;;;17.60;99.90;;;;;;4967892;29;20139;-80
2021/06/04 05:24:12;;;;;;;35.92;25.92;;;17.60;99.90;;;;;;4951300;29;20535;-80
2021/06/04 05:26:38;;;;;;;36.08;26.63;;;17.60;99.90;;;;;;4964532;29;20126;-80
2021/06/04 05:29:05;;;;;;;35.53;26.77;;;17.50;99.90;;;;;;4956931;29;20033;-80
2021/06/04 05:31:31;;;;;;;33.03;25.38;;;17.50;99.90;;;;;;4969071;28;20070;-81
2021/06/04 05:33:57;;;;;;;33.65;24.52;;;17.50;99.90;;;;;;4968760;28;20039;-79
2021/06/04 05:36:32;;;;;;;36.63;27.15;;;17.70;99.90;;;;;;4968599;29;20055;-80
2021/06/04 05:38:59;;;;;;;36.55;26.48;;;17.80;99.90;;;;;;4967407;29;20480;-80
2021/06/04 05:41:25;;;;;;;35.97;25.35;;;17.90;99.90;;;;;;4951566;29;20027;-80
2021/06/04 05:43:51;;;;;;;37.10;27.60;;;18.00;99.90;;;;;;4967181;28;20090;-80
2021/06/04 05:46:18;;;;;;;39.63;30.58;;;18.00;99.90;;;;;;4969004;28;20031;-79
2021/06/04 05:48:44;;;;;;;36.20;26.45;;;18.20;99.90;;;;;;4968563;28;20031;-79
2021/06/04 05:51:16;;;;;;;40.28;30.67;;;18.30;99.90;;;;;;4968567;29;20038;-79
2021/06/04 05:53:41;;;;;;;37.00;29.80;;;18.40;99.90;;;;;;4983057;28;20134;-79
2021/06/04 05:56:12;;;;;;;36.40;28.38;;;18.70;99.90;;;;;;4948671;29;20090;-80
2021/06/04 05:58:38;;;;;;;36.17;27.25;;;18.90;99.90;;;;;;4966887;28;20035;-80
2021/06/04 06:01:08;;;;;;;34.38;25.83;;;18.90;99.90;;;;;;4968329;28;20416;-79
2021/06/04 06:03:34;;;;;;;31.58;24.90;;;19.00;99.90;;;;;;4966857;28;20039;-79
2021/06/04 06:06:01;;;;;;;31.60;23.70;;;18.90;99.90;;;;;;4966392;28;20042;-80
2021/06/04 06:08:27;;;;;;;29.70;23.20;;;19.00;99.90;;;;;;4950421;29;20161;-79
2021/06/04 06:10:53;;;;;;;27.00;21.83;;;19.30;99.90;;;;;;4966551;29;20472;-79
2021/06/04 06:13:20;;;;;;;28.77;22.35;;;19.40;99.90;;;;;;4967888;28;20114;-79
2021/06/04 06:15:47;;;;;;;25.73;21.65;;;19.40;99.90;;;;;;4968086;28;20038;-79
2021/06/04 06:18:13;;;;;;;26.65;20.98;;;19.50;99.90;;;;;;4967963;28;20035;-78
2021/06/04 06:20:43;;;;;;;25.33;18.85;;;19.50;99.90;;;;;;4967828;28;20031;-79
2021/06/04 06:23:09;;;;;;;24.67;18.40;;;19.60;99.90;;;;;;4966245;29;20043;-80
2021/06/04 06:25:39;;;;;;;26.52;19.63;;;19.60;99.90;;;;;;4967410;28;20042;-79
2021/06/04 06:28:07;;;;;;;20.88;16.10;;;19.80;99.90;;;;;;4966461;29;20027;-79
2021/06/04 06:30:34;;;;;;;20.92;17.35;;;19.90;99.90;;;;;;4966294;29;20311;-79
2021/06/04 06:33:00;;;;;;;18.10;14.30;;;20.00;99.90;;;;;;4966350;29;20054;-79
2021/06/04 06:35:39;;;;;;;22.85;18.02;;;19.70;99.90;;;;;;4966344;29;20101;-78
2021/06/04 06:38:06;;;;;;;18.60;14.60;;;19.80;99.90;;;;;;4967796;28;20027;-78
2021/06/04 06:40:33;;;;;;;21.73;16.15;;;20.00;99.90;;;;;;4966280;29;20436;-79
2021/06/04 06:42:59;;;;;;;20.42;16.10;;;19.90;99.90;;;;;;4950264;29;20035;-80
2021/06/04 06:45:26;;;;;;;20.60;17.00;;;19.80;99.90;;;;;;4982284;28;20197;-80
2021/06/04 06:47:52;;;;;;;23.00;18.10;;;19.80;99.90;;;;;;4967664;28;20035;-79
2021/06/04 06:50:20;;;;;;;18.83;15.93;;;19.90;99.90;;;;;;4966305;29;20039;-79
2021/06/04 06:52:47;;;;;;;18.33;14.85;;;20.00;99.90;;;;;;4965731;29;20438;-80
2021/06/04 06:55:13;;;;;;;20.23;16.50;;;20.10;99.90;;;;;;4965358;28;20039;-79
2021/06/04 06:57:39;;;;;;;20.27;16.70;;;20.10;99.90;;;;;;4966383;29;20078;-79
2021/06/04 07:00:11;;;;;;;18.38;16.35;;;20.50;99.90;;;;;;4966083;29;20066;-79
2021/06/04 07:02:37;;;;;;;21.27;15.70;;;20.80;99.90;;;;;;4967566;28;20055;-79
2021/06/04 07:05:03;;;;;;;15.88;14.15;;;21.20;99.90;;;;;;4966045;29;20102;-79
2021/06/04 07:07:28;;;;;;;17.83;15.07;;;21.20;99.90;;;;;;4963393;29;20078;-79
2021/06/04 07:09:54;;;;;;;17.70;14.85;;;21.20;99.90;;;;;;4966338;29;20039;-79
2021/06/04 07:12:20;;;;;;;19.38;16.52;;;20.90;99.90;;;;;;4949938;29;20063;-79
2021/06/04 07:14:45;;;;;;;19.00;14.98;;;20.70;99.90;;;;;;4964881;29;20139;-80
2021/06/04 07:17:11;;;;;;;17.17;14.23;;;20.70;99.90;;;;;;4964524;29;20028;-79
2021/06/04 07:19:36;;;;;;;18.08;13.95;;;20.70;99.90;;;;;;4948859;29;20061;-79
2021/06/04 07:22:04;;;;;;;18.35;15.25;;;20.60;99.90;;;;;;4981973;28;20073;-79
2021/06/04 07:24:30;;;;;;;21.65;16.30;;;20.40;99.90;;;;;;4949595;29;20063;-80
2021/06/04 07:26:59;;;;;;;21.30;16.83;;;20.50;99.90;;;;;;4965484;29;20082;-79
2021/06/04 07:29:25;;;;;;;20.98;16.20;;;20.50;99.90;;;;;;4967381;28;20031;-79
2021/06/04 07:31:52;;;;;;;20.80;16.70;;;20.40;99.90;;;;;;4967197;28;20026;-80
2021/06/04 07:34:18;;;;;;;22.85;16.98;;;20.50;99.90;;;;;;4967225;28;20470;-79
2021/06/04 07:36:47;;;;;;;22.50;18.95;;;20.40;99.90;;;;;;4965760;29;20055;-79
2021/06/04 07:39:16;;;;;;;22.08;18.20;;;20.60;99.90;;;;;;4965737;29;20039;-79
2021/06/04 07:41:42;;;;;;;;;;;20.60;99.90;;;;;;4949965;28;20039;-79
2021/06/04 07:44:09;;;;;;;19.88;17.58;;;20.60;99.90;;;;;;4966751;28;19915;-80
2021/06/04 07:46:35;;;;;;;25.75;18.73;;;20.50;99.90;;;;;;4981761;28;20409;-79
2021/06/04 07:49:01;;;;;;;21.23;17.92;;;20.70;99.90;;;;;;4965681;29;20027;-79
2021/06/04 07:51:35;;;;;;;21.65;16.50;;;20.70;99.90;;;;;;4949525;29;20046;-80
2021/06/04 07:54:02;;;;;;;23.45;18.30;;;21.10;99.90;;;;;;4949464;29;20047;-79
2021/06/04 07:56:27;;;;;;;22.55;17.65;;;21.20;99.90;;;;;;4966732;28;20108;-79
2021/06/04 07:58:53;;;;;;;21.08;16.88;;;21.40;99.90;;;;;;4965643;29;20126;-79
2021/06/04 08:01:20;;;;;;;20.48;16.42;;;21.40;99.90;;;;;;4965400;29;20059;-80
2021/06/04 08:03:46;;;;;;;22.95;19.27;;;22.00;99.90;;;;;;4965319;29;20059;-80
2021/06/04 08:06:14;;;;;;;27.67;20.38;;;21.80;99.90;;;;;;4965733;28;20495;-79
2021/06/04 08:08:40;;;;;;;22.83;18.42;;;21.50;99.90;;;;;;4931170;28;20085;-79
2021/06/04 08:11:08;;;;;;;20.77;17.45;;;22.20;99.90;;;;;;4970168;29;20031;-79
2021/06/04 08:13:35;;;;;;;22.30;16.65;;;22.70;99.90;;;;;;4970235;28;20035;-79
2021/06/04 08:16:05;;;;;;;17.45;14.02;;;23.20;99.90;;;;;;4953011;29;20042;-79
2021/06/04 08:18:31;;;;;;;;;;;23.10;99.90;;;;;;4969653;29;20035;-79
2021/06/04 08:20:59;;;;;;;16.45;14.73;;;23.00;99.90;;;;;;4970309;28;19911;-79
2021/06/04 08:23:29;;;;;;;20.02;17.35;;;23.40;99.90;;;;;;4985110;28;20039;-79
2021/06/04 08:25:57;;;;;;;24.17;16.13;;;22.80;99.90;;;;;;4952884;29;20431;-79
2021/06/04 08:28:24;;;;;;;23.65;16.55;;;22.70;99.90;;;;;;4952875;29;20376;-79
2021/06/04 08:30:50;;;;;;;22.98;16.60;;;22.60;99.90;;;;;;4970012;28;20070;-79
2021/06/04 08:33:41;;;;;;;25.13;17.15;;;22.70;99.90;;;;;;4970192;28;20039;-79
2021/06/04 08:36:09;;;;;;;21.27;16.15;;;22.70;99.90;;;;;;4968767;29;20062;-79
2021/06/04 08:38:39;;;;;;;21.52;16.00;;;22.60;99.90;;;;;;4968956;29;20031;-79
2021/06/04 08:41:23;;;;;;;15.80;14.02;;;22.90;99.90;;;;;;4952691;29;20035;-80
2021/06/04 08:44:18;;;;;;;18.55;14.40;;;23.70;99.90;;;;;;4952687;29;20047;-79
2021/06/04 08:46:51;;;;;;;18.15;14.95;;;22.90;99.90;;;;;;4968535;29;20036;-79
2021/06/04 08:49:21;;;;;;;17.05;13.05;;;22.70;99.90;;;;;;4984816;28;20039;-79
2021/06/04 08:52:18;;;;;;;22.10;16.75;;;22.80;99.90;;;;;;4968587;29;20027;-79
2021/06/04 08:55:09;;;;;;;22.23;17.02;;;22.50;99.90;;;;;;4969677;29;20071;-79
2021/06/04 08:57:55;;;;;;;19.08;14.43;;;22.70;99.90;;;;;;4969818;29;20031;-80
2021/06/04 09:00:26;;;;;;;18.70;15.20;;;23.30;99.90;;;;;;4968421;29;20035;-80
2021/06/04 09:03:14;;;;;;;19.95;16.00;;;24.00;99.90;;;;;;4968627;29;20571;-79
2021/06/04 09:06:02;;;;;;;18.25;14.60;;;24.10;99.90;;;;;;4968064;29;20031;-80
2021/06/04 09:08:32;;;;;;;18.63;14.60;;;24.50;99.90;;;;;;4909660;29;20491;-79
2021/06/04 09:11:05;;;;;;;21.02;16.33;;;24.50;99.90;;;;;;4894039;29;20041;-80
2021/06/04 09:13:35;;;;;;;21.75;15.88;;;24.40;99.90;;;;;;4893894;29;20056;-79
2021/06/04 09:16:08;;;;;;;20.02;15.38;;;24.40;99.90;;;;;;4909748;29;20036;-79
2021/06/04 09:19:06;;;;;;;16.10;13.60;;;24.30;99.90;;;;;;4893112;29;20036;-79
2021/06/04 09:21:34;;;;;;;12.63;9.98;;;24.20;99.90;;;;;;4893369;29;20091;-80
2021/06/04 09:24:13;;;;;;;12.23;10.10;;;23.70;99.90;;;;;;4893960;29;20521;-80
2021/06/04 09:26:40;;;;;;;10.63;8.80;;;23.40;99.90;;;;;;4880042;29;20041;-80
2021/06/04 09:29:18;;;;;;;13.70;11.38;;;23.10;99.90;;;;;;4893713;29;20146;-80
2021/06/04 09:31:53;;;;;;;10.27;9.20;;;23.20;99.90;;;;;;4893891;29;20071;-80
2021/06/04 09:34:24;;;;;;;16.13;13.38;;;23.60;99.90;;;;;;4893737;29;20059;-80
2021/06/04 09:36:52;;;;;;;13.60;10.00;;;23.70;99.90;;;;;;4909170;29;20047;-81
2021/06/04 09:39:26;;;;;;;17.15;11.93;;;24.00;99.90;;;;;;4894122;29;20040;-80
2021/06/04 09:42:04;;;;;;;15.13;12.35;;;23.90;99.90;;;;;;4893987;29;20096;-80
2021/06/04 09:44:31;;;;;;;15.95;12.95;;;23.40;99.90;;;;;;4898540;29;20095;-80
2021/06/04 09:47:23;;;;;;;12.07;8.90;;;23.60;99.90;;;;;;4951349;29;20062;-81
2021/06/04 09:49:51;;;;;;;18.73;13.30;;;23.90;99.90;;;;;;4967576;29;20031;-80
2021/06/04 09:52:20;;;;;;;17.58;13.10;;;24.00;99.90;;;;;;4968639;28;20031;-81
2021/06/04 09:54:45;;;;;;;14.80;12.27;;;23.70;99.90;;;;;;4967381;29;20043;-80
2021/06/04 09:57:15;;;;;;;20.23;13.75;;;24.10;99.90;;;;;;4967333;29;20171;-80
2021/06/04 09:59:41;;;;;;;18.15;14.25;;;24.00;99.90;;;;;;4967417;29;20094;-80
2021/06/04 10:02:37;;;;;;;16.63;11.80;;;23.70;99.90;;;;;;4967249;29;20031;-81
2021/06/04 10:08:32;;;;;;;13.00;9.40;;;24.00;99.90;;;;;;4946466;29;20206;-81
2021/06/04 10:11:17;;;;;;;14.77;12.50;;;24.60;99.90;;;;;;4946778;29;20039;-80
2021/06/04 10:13:47;;;;;;;15.48;10.48;;;24.10;99.90;;;;;;4930503;29;20054;-80
2021/06/04 10:19:43;;;;;;;14.80;10.15;;;24.70;99.90;;;;;;4937547;29;20048;-81
2021/06/04 10:22:28;;;;;;;11.73;8.95;;;24.60;99.90;;;;;;4930529;29;20476;-80
2021/06/04 10:25:02;;;;;;;14.20;10.13;;;24.50;99.90;;;;;;4930290;29;20591;-80
2021/06/04 10:27:28;;;;;;;10.32;7.97;;;24.80;99.90;;;;;;4930549;29;20044;-80
2021/06/04 10:30:20;;;;;;;7.72;6.18;;;25.60;99.90;;;;;;4930161;29;20040;-81
2021/06/04 10:32:50;;;;;;;11.23;8.00;;;26.40;99.90;;;;;;4945995;29;20084;-81
2021/06/04 10:35:52;;;;;;;10.75;9.07;;;26.10;99.90;;;;;;4930524;29;20095;-81
2021/06/04 10:38:35;;;;;;;10.20;8.25;;;25.90;99.90;;;;;;4930139;29;20168;-81
2021/06/04 10:41:09;;;;;;;9.45;7.80;;;25.50;99.90;;;;;;4946288;29;20035;-81
2021/06/04 10:44:12;;;;;;;12.65;8.95;;;25.60;99.90;;;;;;4914458;29;20031;-81
2021/06/04 10:46:52;;;;;;;10.45;7.88;;;25.80;99.90;;;;;;4943451;29;20159;-81
2021/06/04 10:49:46;;;;;;;10.13;7.68;;;25.50;99.90;;;;;;4948493;29;20205;-81
2021/06/04 10:52:21;;;;;;;7.15;6.10;;;25.50;99.90;;;;;;4962951;28;20046;-82
2021/06/04 10:55:11;;;;;;;7.30;6.10;;;25.70;99.90;;;;;;4963160;29;20127;-82
2021/06/04 10:57:51;;;;;;;12.30;8.43;;;25.70;99.90;;;;;;4962957;29;20047;-81
2021/06/04 11:00:22;;;;;;;9.70;7.43;;;25.80;99.90;;;;;;4947369;29;20439;-81
2021/06/04 11:03:28;;;;;;;7.82;5.72;;;25.90;99.90;;;;;;4962900;29;20070;-81
2021/06/04 11:05:56;;;;;;;8.75;5.55;;;25.60;99.90;;;;;;4962939;28;20032;-80
2021/06/04 11:08:43;;;;;;;9.57;5.90;;;25.50;99.90;;;;;;4962599;29;20053;-80
2021/06/04 11:11:26;;;;;;;5.72;3.53;;;25.90;99.90;;;;;;4963323;29;20054;-81
2021/06/04 11:14:17;;;;;;;8.95;4.38;;;25.40;99.90;;;;;;4955428;29;20039;-81
2021/06/04 11:17:12;;;;;;;6.32;3.95;;;25.10;99.90;;;;;;4965774;28;20039;-81
2021/06/04 11:19:44;;;;;;;8.40;4.72;;;25.20;99.90;;;;;;4967353;29;20090;-81
2021/06/04 11:22:25;;;;;;;3.55;2.72;;;24.90;99.90;;;;;;4966140;28;20035;-81
2021/06/04 11:25:00;;;;;;;7.70;4.38;;;25.40;99.90;;;;;;4965797;28;20062;-81
2021/06/04 11:27:32;;;;;;;5.03;3.88;;;25.10;99.90;;;;;;4965607;29;20031;-81
2021/06/04 11:29:59;;;;;;;4.50;3.17;;;25.30;99.90;;;;;;4967118;28;20035;-80
2021/06/04 11:32:35;;;;;;;5.43;3.13;;;25.40;99.90;;;;;;4965557;28;20031;-81
2021/06/04 11:35:17;;;;;;;4.25;3.17;;;25.90;99.90;;;;;;4966753;28;20147;-81
2021/06/04 11:37:55;;;;;;;3.15;2.00;;;25.80;99.90;;;;;;4965411;29;20039;-81
2021/06/04 11:40:29;;;;;;;5.82;3.92;;;26.10;99.90;;;;;;4967282;28;20035;-81
2021/06/04 11:43:18;;;;;;;7.65;6.07;;;25.50;99.90;;;;;;4964755;28;20051;-80
2021/06/04 11:45:47;;;;;;;3.75;2.90;;;25.40;99.90;;;;;;4977854;28;20041;-81
2021/06/04 11:48:28;;;;;;;8.93;6.72;;;26.00;99.90;;;;;;4981483;28;20039;-80
2021/06/04 11:51:17;;;;;;;6.47;4.63;;;25.40;99.90;;;;;;4966842;28;20039;-80
2021/06/04 11:53:44;;;;;;;5.82;4.80;;;26.20;99.90;;;;;;4961738;29;20057;-81
2021/06/04 11:56:30;;;;;;;7.20;6.15;;;26.30;99.90;;;;;;4965406;29;20035;-81
2021/06/04 11:58:56;;;;;;;7.22;5.22;;;25.90;99.90;;;;;;4965088;29;20439;-81
2021/06/04 12:01:22;;;;;;;3.72;2.28;;;25.70;99.90;;;;;;4966603;29;20030;-80
2021/06/04 12:03:58;;;;;;;6.18;5.10;;;26.40;99.90;;;;;;4965056;29;20036;-79
2021/06/04 12:06:23;;;;;;;8.45;5.65;;;26.10;99.90;;;;;;4965139;29;20105;-81
2021/06/04 12:08:51;;;;;;;4.97;3.80;;;25.80;99.90;;;;;;4966158;29;20047;-80
2021/06/04 12:11:17;;;;;;;6.40;5.80;;;26.10;99.90;;;;;;4981408;28;20063;-78
2021/06/04 12:14:04;;;;;;;7.90;6.15;;;26.10;99.90;;;;;;4964316;29;20035;-79
2021/06/04 12:16:33;;;;;;;8.02;6.05;;;26.30;99.90;;;;;;4964934;29;20050;-80
2021/06/04 12:19:22;;;;;;;5.78;4.53;;;25.80;99.90;;;;;;4980912;28;20023;-80
2021/06/04 12:21:48;;;;;;;5.40;4.50;;;26.20;99.90;;;;;;4949060;29;20039;-80
2021/06/04 12:24:17;;;;;;;6.82;3.53;;;26.30;99.90;;;;;;4948763;29;20069;-79
2021/06/04 12:26:48;;;;;;;6.57;4.65;;;26.80;99.90;;;;;;4964761;29;20428;-80
2021/06/04 12:29:20;;;;;;;5.32;4.47;;;26.40;99.90;;;;;;4964937;28;20039;-81
2021/06/04 12:32:12;;;;;;;6.88;4.30;;;26.80;99.90;;;;;;4965101;29;20093;-80
2021/06/04 12:34:38;;;;;;;7.45;5.07;;;26.30;99.90;;;;;;4964487;28;20043;-82
2021/06/04 12:37:23;;;;;;;5.47;4.10;;;26.50;99.90;;;;;;4965988;28;20023;-80
2021/06/04 12:40:00;;;;;;;5.43;3.53;;;26.60;99.90;;;;;;4964846;28;20043;-79
2021/06/04 12:42:30;;;;;;;5.50;4.18;;;26.40;99.90;;;;;;4965705;28;20035;-81
2021/06/04 12:45:14;;;;;;;6.30;5.53;;;26.60;99.90;;;;;;4964699;28;20035;-81
2021/06/04 12:47:58;;;;;;;4.32;2.97;;;26.70;99.90;;;;;;4966160;29;20099;-80
2021/06/04 12:50:42;;;;;;;9.15;5.28;;;27.10;99.90;;;;;;4980981;28;20023;-80
2021/06/04 12:53:25;;;;;;;4.90;4.07;;;26.50;99.90;;;;;;4967334;28;20031;-81
2021/06/04 12:55:57;;;;;;;3.75;2.88;;;26.50;99.90;;;;;;4970370;29;20467;-81
2021/06/04 12:58:36;;;;;;;2.67;1.52;;;27.00;99.90;;;;;;4972024;28;20031;-81
2021/06/04 13:01:24;;;;;;;2.72;1.52;;;27.10;99.90;;;;;;4970166;28;20082;-82
2021/06/04 13:04:20;;;;;;;5.22;1.20;;;27.40;99.90;;;;;;4984151;28;20042;-81
2021/06/04 13:06:52;;;;;;;5.10;1.38;;;27.30;99.90;;;;;;4972685;29;20031;-82